createdAt,value
2023-02-13T07:36:36.373Z,11.57
2023-02-13T07:39:04.202Z,11.85
2023-02-13T07:41:31.947Z,12.27
2023-02-13T07:43:59.605Z,12.20
2023-02-13T07:46:27.273Z,12.05
2023-02-13T07:48:54.980Z,12.05
2023-02-13T07:51:25.396Z,12.15
2023-02-13T07:53:53.855Z,11.98
2023-02-13T07:56:22.390Z,11.30
2023-02-13T07:58:50.036Z,11.27
2023-02-13T08:01:19.880Z,13.38
2023-02-13T08:03:51.400Z,12.13
2023-02-13T08:06:19.508Z,12.25
2023-02-13T08:08:47.169Z,12.13
2023-02-13T08:11:52.627Z,11.50
2023-02-13T08:14:21.070Z,11.13
2023-02-13T08:16:49.178Z,11.48
2023-02-13T08:19:17.012Z,11.45
2023-02-13T08:21:44.744Z,10.82
2023-02-13T08:24:12.597Z,11.55
2023-02-13T08:26:40.568Z,10.38
2023-02-13T08:29:08.870Z,10.98
2023-02-13T08:31:36.753Z,10.73
2023-02-13T08:34:04.458Z,11.05
2023-02-13T08:36:32.173Z,11.40
2023-02-13T08:38:59.820Z,9.52
2023-02-13T08:41:27.451Z,10.38
2023-02-13T08:43:55.575Z,10.98
2023-02-13T08:46:23.476Z,9.75
2023-02-13T08:48:51.333Z,10.20
2023-02-13T08:51:18.931Z,10.52
2023-02-13T08:53:46.586Z,11.20
2023-02-13T08:56:14.278Z,11.52
2023-02-13T08:58:41.910Z,11.88
2023-02-13T09:01:09.759Z,11.13
2023-02-13T09:03:37.494Z,10.32
2023-02-13T09:06:05.347Z,10.30
2023-02-13T09:08:33.043Z,9.95
2023-02-13T09:11:01.822Z,10.45
2023-02-13T09:13:30.338Z,10.85
2023-02-13T09:16:01.626Z,10.27
2023-02-13T09:18:29.154Z,10.32
2023-02-13T09:21:14.560Z,10.85
2023-02-13T09:23:42.316Z,10.18
2023-02-13T09:26:15.233Z,11.43
2023-02-13T09:28:42.976Z,10.20
2023-02-13T09:31:15.522Z,11.63
2023-02-13T09:33:44.674Z,11.27
2023-02-13T09:36:14.865Z,11.32
2023-02-13T09:38:44.208Z,11.57
2023-02-13T09:41:19.533Z,11.65
2023-02-13T09:44:07.171Z,12.15
2023-02-13T09:46:39.699Z,11.82
2023-02-13T09:49:16.871Z,11.48
2023-02-13T09:51:45.318Z,11.80
2023-02-13T09:54:16.511Z,11.68
2023-02-13T09:57:15.234Z,12.68
2023-02-13T10:00:03.716Z,11.95
2023-02-13T10:02:51.953Z,11.90
2023-02-13T10:05:44.259Z,12.10
2023-02-13T10:08:20.679Z,12.52
2023-02-13T10:11:20.609Z,12.85
2023-02-13T10:13:58.821Z,13.20
2023-02-13T10:16:33.414Z,13.45
2023-02-13T10:19:28.195Z,12.13
2023-02-13T10:22:02.035Z,14.20
2023-02-13T10:24:38.321Z,13.18
2023-02-13T10:27:24.706Z,14.02
2023-02-13T10:30:07.092Z,13.73
2023-02-13T10:33:15.751Z,14.18
2023-02-13T10:35:56.670Z,13.55
2023-02-13T10:38:24.275Z,13.77
2023-02-13T10:41:17.119Z,14.73
2023-02-13T10:44:06.034Z,14.77
2023-02-13T10:47:01.108Z,13.80
2023-02-13T10:49:36.246Z,13.05
2023-02-13T10:52:30.976Z,14.10
2023-02-13T10:55:21.454Z,14.25
2023-02-13T10:58:15.794Z,13.40
2023-02-13T11:01:01.677Z,14.57
2023-02-13T11:03:30.172Z,14.32
2023-02-13T11:05:59.956Z,14.20
2023-02-13T11:08:43.152Z,14.20
2023-02-13T11:11:32.559Z,14.48
2023-02-13T11:14:26.118Z,13.27
2023-02-13T11:16:58.251Z,13.35
2023-02-13T11:19:39.176Z,14.27
2023-02-13T11:22:14.009Z,13.57
2023-02-13T11:24:58.366Z,14.10
2023-02-13T11:27:32.845Z,14.68
2023-02-13T11:30:24.086Z,13.90
2023-02-13T11:33:17.006Z,13.05
2023-02-13T11:35:46.303Z,13.15
2023-02-13T11:38:24.196Z,12.93
2023-02-13T11:41:08.984Z,13.77
2023-02-13T11:43:46.228Z,13.60
2023-02-13T11:46:14.677Z,13.75
2023-02-13T11:48:44.473Z,12.00
2023-02-13T11:51:11.857Z,12.68
2023-02-13T11:53:40.154Z,11.73
2023-02-13T11:56:13.956Z,11.15
2023-02-13T11:58:42.457Z,11.13
2023-02-13T12:01:21.980Z,12.38
2023-02-13T12:04:18.125Z,11.27
2023-02-13T12:07:03.669Z,11.77
2023-02-13T12:09:32.134Z,11.77
2023-02-13T12:12:04.515Z,10.30
2023-02-13T12:14:39.819Z,10.48
2023-02-13T12:17:31.464Z,11.48
2023-02-13T12:20:00.499Z,11.75
2023-02-13T12:22:57.951Z,13.32
2023-02-13T12:25:43.567Z,12.20
2023-02-13T12:28:31.627Z,11.75
2023-02-13T12:31:27.821Z,12.80
2023-02-13T12:34:12.094Z,12.20
2023-02-13T12:36:46.356Z,12.35
2023-02-13T12:39:33.225Z,13.00
2023-02-13T12:42:33.012Z,12.07
2023-02-13T12:45:31.528Z,13.88
2023-02-13T12:48:28.330Z,12.00
2023-02-13T12:51:01.468Z,11.55
2023-02-13T12:53:47.640Z,12.80
2023-02-13T12:56:26.979Z,12.15
2023-02-13T12:59:03.214Z,13.00
2023-02-13T13:02:09.308Z,12.90
2023-02-13T13:04:48.674Z,11.55
2023-02-13T13:07:47.668Z,10.57
2023-02-13T13:10:47.177Z,10.10
2023-02-13T13:13:35.948Z,8.60
2023-02-13T13:16:30.811Z,8.80
2023-02-13T13:19:10.445Z,8.98
2023-02-13T13:21:41.589Z,8.60
2023-02-13T13:24:29.407Z,8.63
2023-02-13T13:26:58.236Z,8.57
2023-02-13T13:29:32.766Z,8.25
2023-02-13T13:32:08.129Z,8.45
2023-02-13T13:34:38.927Z,7.75
2023-02-13T13:37:12.026Z,8.30
2023-02-13T13:39:58.435Z,8.70
2023-02-13T13:43:01.067Z,8.55
2023-02-13T13:45:46.131Z,7.88
2023-02-13T13:48:31.450Z,8.23
2023-02-13T13:51:00.032Z,9.35
2023-02-13T13:53:27.633Z,7.47
2023-02-13T13:55:58.404Z,7.85
2023-02-13T13:58:32.509Z,8.40
2023-02-13T14:01:21.269Z,7.53
2023-02-13T14:04:21.931Z,8.18
2023-02-13T14:06:52.585Z,8.10
2023-02-13T14:09:41.299Z,9.75
2023-02-13T14:12:27.323Z,6.13
2023-02-13T14:14:58.768Z,7.65
2023-02-13T14:17:44.671Z,5.97
2023-02-13T14:20:36.965Z,6.38
2023-02-13T14:23:36.358Z,5.45
2023-02-13T14:26:16.087Z,6.68
2023-02-13T14:28:49.541Z,5.53
2023-02-13T14:31:16.992Z,7.22
2023-02-13T14:33:44.633Z,8.45
2023-02-13T14:36:23.181Z,7.53
2023-02-13T14:39:27.508Z,8.05
2023-02-13T14:41:54.846Z,7.88
2023-02-13T14:44:41.010Z,8.13
2023-02-13T14:47:33.409Z,8.40
2023-02-13T14:50:03.210Z,8.25
2023-02-13T14:52:37.535Z,8.00
2023-02-13T14:55:13.005Z,8.73
2023-02-13T14:57:47.023Z,10.52
2023-02-13T15:00:28.387Z,9.55
2023-02-13T15:05:51.891Z,11.48
2023-02-13T15:08:26.856Z,10.88
2023-02-13T15:10:57.105Z,11.90
2023-02-13T15:13:33.124Z,11.38
2023-02-13T15:16:02.615Z,12.57
2023-02-13T15:18:52.486Z,12.55
2023-02-13T15:21:33.175Z,8.40
2023-02-13T15:24:00.635Z,8.90
2023-02-13T15:26:29.617Z,11.05
2023-02-13T15:29:17.502Z,11.13
2023-02-13T15:31:52.994Z,10.88
2023-02-13T15:34:22.635Z,10.85
2023-02-13T15:36:50.528Z,10.32
2023-02-13T15:39:20.600Z,11.75
2023-02-13T15:41:50.819Z,11.75
2023-02-13T15:44:22.624Z,10.48
2023-02-13T15:46:52.283Z,11.13
2023-02-13T15:49:24.296Z,10.23
2023-02-13T15:52:01.164Z,10.18
2023-02-13T15:54:33.111Z,10.35
2023-02-13T15:57:06.534Z,9.95
2023-02-13T15:59:39.720Z,11.70
2023-02-13T16:02:23.743Z,11.15
2023-02-13T16:04:54.673Z,10.00
2023-02-13T16:07:22.342Z,10.65
2023-02-13T16:09:49.707Z,19.52
2023-02-13T16:12:26.072Z,15.13
2023-02-13T16:14:57.866Z,12.07
2023-02-13T16:20:12.555Z,12.15
2023-02-13T16:22:48.818Z,11.45
2023-02-13T16:25:18.334Z,12.48
2023-02-13T16:27:52.319Z,12.23
2023-02-13T16:30:41.946Z,12.50
2023-02-13T16:33:15.376Z,11.88
2023-02-13T16:35:51.610Z,11.23
2023-02-13T16:38:39.140Z,11.75
2023-02-13T16:41:30.353Z,12.90
2023-02-13T16:44:05.285Z,12.43
2023-02-13T16:46:39.534Z,11.95
2023-02-13T16:49:09.652Z,12.65
2023-02-13T16:51:38.717Z,12.68
2023-02-13T16:54:12.068Z,12.68
2023-02-13T16:56:41.172Z,13.10
2023-02-13T16:59:17.364Z,13.07
2023-02-13T17:01:44.726Z,12.50
2023-02-13T17:04:22.686Z,13.27
2023-02-13T17:06:55.393Z,13.35
2023-02-13T17:09:23.219Z,12.82
2023-02-13T17:11:52.812Z,13.48
2023-02-13T17:14:20.573Z,12.45
2023-02-13T17:16:48.763Z,13.38
2023-02-13T17:19:16.203Z,13.02
2023-02-13T17:21:43.705Z,12.48
2023-02-13T17:24:18.106Z,13.43
2023-02-13T17:26:45.452Z,14.00
2023-02-13T17:29:12.854Z,13.82
2023-02-13T17:31:40.390Z,13.73
2023-02-13T17:34:07.893Z,13.02
2023-02-13T17:36:35.176Z,12.75
2023-02-13T17:39:02.514Z,14.10
2023-02-13T17:41:29.878Z,13.55
2023-02-13T17:43:57.197Z,14.55
2023-02-13T17:46:24.519Z,13.98
2023-02-13T17:48:52.652Z,14.73
2023-02-13T17:51:20.125Z,13.48
2023-02-13T17:53:47.380Z,14.50
2023-02-13T17:56:14.964Z,15.93
2023-02-13T17:58:42.274Z,14.65
2023-02-13T18:01:11.576Z,16.63
2023-02-13T18:03:40.363Z,18.13
2023-02-13T18:06:12.318Z,18.15
2023-02-13T18:08:39.711Z,19.27
2023-02-13T18:11:11.823Z,19.48
2023-02-13T18:13:44.002Z,19.25
2023-02-13T18:16:11.515Z,16.48
2023-02-13T18:18:39.013Z,17.10
2023-02-13T18:21:06.426Z,18.30
2023-02-13T18:23:33.898Z,17.98
2023-02-13T18:26:10.116Z,19.02
2023-02-13T18:28:38.012Z,19.23
2023-02-13T18:31:05.507Z,18.98
2023-02-13T18:33:32.841Z,19.25
2023-02-13T18:36:01.502Z,20.27
2023-02-13T18:38:29.802Z,19.23
2023-02-13T18:40:57.571Z,20.50
2023-02-13T18:43:25.115Z,20.25
2023-02-13T18:45:52.571Z,19.38
2023-02-13T18:48:20.437Z,21.17
2023-02-13T18:50:47.879Z,20.10
2023-02-13T18:53:15.378Z,20.77
2023-02-13T18:55:42.665Z,21.02
2023-02-13T18:58:09.999Z,19.40
2023-02-13T19:00:37.376Z,19.02
2023-02-13T19:03:04.749Z,19.30
2023-02-13T19:05:32.265Z,19.95
2023-02-13T19:08:00.817Z,19.15
2023-02-13T19:10:28.482Z,17.95
2023-02-13T19:12:55.848Z,19.60
2023-02-13T19:15:23.255Z,19.50
2023-02-13T19:17:50.658Z,20.30
2023-02-13T19:20:18.101Z,19.88
2023-02-13T19:22:45.408Z,19.83
2023-02-13T19:25:12.701Z,19.67
2023-02-13T19:27:40.150Z,20.67
2023-02-13T19:30:09.651Z,20.55
2023-02-13T19:32:37.126Z,20.15
2023-02-13T19:35:04.893Z,21.60
2023-02-13T19:37:43.009Z,19.98
2023-02-13T19:40:13.021Z,20.65
2023-02-13T19:42:40.411Z,21.05
2023-02-13T19:45:08.100Z,20.02
2023-02-13T19:47:36.885Z,21.20
2023-02-13T19:50:04.528Z,23.02
2023-02-13T19:52:31.790Z,22.70
2023-02-13T19:54:59.075Z,24.50
2023-02-13T19:57:26.383Z,24.65
2023-02-13T19:59:53.739Z,25.00
2023-02-13T20:02:21.747Z,24.95
2023-02-13T20:04:49.202Z,27.70
2023-02-13T20:07:16.601Z,27.70
2023-02-13T20:09:44.097Z,26.13
2023-02-13T20:12:11.429Z,27.67
2023-02-13T20:14:38.835Z,25.30
2023-02-13T20:17:07.221Z,25.20
2023-02-13T20:19:34.691Z,24.67
2023-02-13T20:22:02.080Z,23.85
2023-02-13T20:24:29.608Z,24.23
2023-02-13T20:26:58.903Z,24.52
2023-02-13T20:29:26.300Z,24.17
2023-02-13T20:31:54.102Z,24.05
2023-02-13T20:34:21.680Z,23.30
2023-02-13T20:36:49.066Z,23.40
2023-02-13T20:39:16.556Z,23.00
2023-02-13T20:41:48.547Z,22.15
2023-02-13T20:44:19.192Z,22.60
2023-02-13T20:46:47.512Z,22.90
2023-02-13T20:49:20.237Z,22.60
2023-02-13T20:51:48.823Z,22.67
2023-02-13T20:54:17.016Z,23.45
2023-02-13T20:56:46.463Z,22.38
2023-02-13T21:01:58.808Z,23.67
2023-02-13T21:04:29.148Z,22.55
2023-02-13T21:06:56.717Z,22.05
2023-02-13T21:09:24.219Z,23.20
2023-02-13T21:11:51.744Z,22.75
2023-02-13T21:14:19.096Z,24.08
2023-02-13T21:16:46.533Z,22.80
2023-02-13T21:19:17.100Z,23.75
2023-02-13T21:21:44.984Z,22.67
2023-02-13T21:24:15.502Z,23.35
2023-02-13T21:26:44.054Z,24.38
2023-02-13T21:29:11.511Z,24.73
2023-02-13T21:31:44.930Z,24.08
2023-02-13T21:34:13.256Z,24.38
2023-02-13T21:36:41.036Z,24.35
2023-02-13T21:39:10.570Z,24.48
2023-02-13T21:41:42.413Z,23.75
2023-02-13T21:46:38.497Z,23.38
2023-02-13T21:49:08.101Z,23.85
2023-02-13T21:51:36.288Z,23.45
2023-02-13T21:54:04.965Z,24.98
2023-02-13T21:56:35.732Z,24.55
2023-02-13T21:59:04.174Z,24.05
2023-02-13T22:01:45.891Z,22.60
2023-02-13T22:04:13.598Z,23.58
2023-02-13T22:06:41.175Z,25.38
2023-02-13T22:09:13.774Z,24.90
2023-02-13T22:11:41.883Z,25.17
2023-02-13T22:14:15.933Z,24.77
2023-02-13T22:16:44.452Z,25.02
2023-02-13T22:19:14.396Z,24.65
2023-02-13T22:21:42.711Z,24.10
2023-02-13T22:24:10.666Z,23.35
2023-02-13T22:26:41.006Z,26.30
2023-02-13T22:29:11.338Z,25.02
2023-02-13T22:31:39.190Z,24.63
2023-02-13T22:34:07.086Z,23.77
2023-02-13T22:36:38.875Z,24.77
2023-02-13T22:39:07.385Z,24.60
2023-02-13T22:41:34.820Z,24.83
2023-02-13T22:44:02.233Z,24.15
2023-02-13T22:46:31.790Z,23.05
2023-02-13T22:49:00.384Z,24.38
2023-02-13T22:51:33.131Z,23.88
2023-02-13T22:54:01.408Z,23.25
2023-02-13T22:56:29.833Z,24.55
2023-02-13T22:58:57.789Z,23.90
2023-02-13T23:01:27.774Z,24.17
2023-02-13T23:03:56.116Z,22.98
2023-02-13T23:06:24.192Z,24.98
2023-02-13T23:08:55.109Z,22.70
2023-02-13T23:11:43.758Z,22.93
2023-02-13T23:14:12.337Z,22.92
2023-02-13T23:16:59.276Z,23.20
2023-02-13T23:19:27.614Z,21.80
2023-02-13T23:21:55.308Z,21.65
2023-02-13T23:24:22.929Z,22.75
2023-02-13T23:26:50.268Z,21.85
2023-02-13T23:29:17.959Z,20.95
2023-02-13T23:31:45.809Z,21.08
2023-02-13T23:34:13.788Z,20.65
2023-02-13T23:36:41.882Z,19.45
2023-02-13T23:39:09.428Z,19.52
2023-02-13T23:41:36.836Z,20.45
2023-02-13T23:44:04.406Z,19.73
2023-02-13T23:46:31.940Z,18.52
2023-02-13T23:48:59.361Z,19.02
2023-02-13T23:51:26.827Z,18.98
2023-02-13T23:53:56.222Z,19.35
2023-02-13T23:56:24.684Z,18.98
2023-02-13T23:58:52.224Z,18.45
